Happy Valley, Tennessee
Current Conditions -  °F | °C
As of 7:53 PM on Friday 24 Oct 2014 (Local Time) from KTYS Reporting Station
Clear Clear  
Wind Chill: 59°   Ceiling: Unl
Heat Index: 59°   Visibility: 10mi
Dew Point: 42°   Wind: 0mph
Humidity: 53%   Direction: NA
Pressure: 30.05"   Gusts: NA
Location:  35.5537°N, 83.9603°W
Report Text: KTYS 242353Z 00000KT 10SM CLR 15/06 A3005 RMK AO2 SLP175 T01500056 10200 20144 53008
Loading
Personal Weather Stations






























Interactive Weather Map
Tropical Storm Tracking
New forecast layout! Learn more

10-Day Weather Forecast

Advertisements
Track Severe Weather on mobile